createdAt,value
2016-06-12T00:00:00.261Z,15.13
2016-06-12T00:01:00.248Z,15.15
2016-06-12T00:02:00.220Z,15.19
2016-06-12T00:03:00.207Z,15.13
2016-06-12T00:04:00.179Z,15.2
2016-06-12T00:05:00.745Z,15.12
2016-06-12T00:06:00.138Z,15.13
2016-06-12T00:07:00.127Z,15.08
2016-06-12T00:08:00.114Z,15.09
2016-06-12T00:09:00.111Z,15.12
2016-06-12T00:10:00.137Z,15.09
2016-06-12T00:11:00.147Z,14.99
2016-06-12T00:12:00.157Z,15.05
2016-06-12T00:13:00.182Z,14.98
2016-06-12T00:14:00.176Z,15.01
2016-06-12T00:15:00.176Z,15.02
2016-06-12T00:16:00.163Z,15.02
2016-06-12T00:17:00.148Z,15.01
2016-06-12T00:18:00.165Z,15.03
2016-06-12T00:19:00.144Z,15.06
2016-06-12T00:20:00.637Z,15.03
2016-06-12T00:20:59.957Z,15.02
2016-06-12T00:22:00.090Z,14.99
2016-06-12T00:23:00.083Z,14.93
2016-06-12T00:24:00.057Z,15.03
2016-06-12T00:25:00.047Z,14.91
2016-06-12T00:26:00.020Z,14.99
2016-06-12T00:27:00.010Z,14.94
2016-06-12T00:27:59.999Z,14.94
2016-06-12T00:28:59.972Z,14.99
2016-06-12T00:29:59.945Z,14.95
2016-06-12T00:30:59.916Z,15.01
2016-06-12T00:31:59.905Z,15.01
2016-06-12T00:32:59.877Z,14.94
2016-06-12T00:33:59.865Z,14.94
2016-06-12T00:34:59.868Z,14.95
2016-06-12T00:35:59.824Z,15.02
2016-06-12T00:36:59.797Z,14.99
2016-06-12T00:37:59.784Z,14.98
2016-06-12T00:38:59.756Z,14.94
2016-06-12T00:39:59.729Z,14.99
2016-06-12T00:40:59.715Z,14.99
2016-06-12T00:41:59.703Z,14.95
2016-06-12T00:42:59.690Z,14.95
2016-06-12T00:43:59.663Z,14.98
2016-06-12T00:44:59.634Z,14.98
2016-06-12T00:45:59.622Z,14.88
2016-06-12T00:46:59.437Z,14.86
2016-06-12T00:47:59.581Z,14.86
2016-06-12T00:48:59.553Z,14.87
2016-06-12T00:50:01.291Z,14.9
2016-06-12T00:50:59.512Z,14.88
2016-06-12T00:51:59.484Z,14.9
2016-06-12T00:52:59.471Z,14.83
2016-06-12T00:53:59.444Z,14.8
2016-06-12T00:54:59.431Z,14.86
2016-06-12T00:55:59.417Z,14.8
2016-06-12T00:56:59.390Z,14.78
2016-06-12T00:57:59.377Z,14.71
2016-06-12T00:58:59.349Z,14.72
2016-06-12T00:59:59.321Z,14.67
2016-06-12T01:00:59.308Z,14.64
2016-06-12T01:01:59.280Z,14.69
2016-06-12T01:02:59.267Z,14.71
2016-06-12T01:03:59.240Z,14.75
2016-06-12T01:04:59.680Z,14.61
2016-06-12T01:05:59.198Z,14.64
2016-06-12T01:06:59.170Z,14.65
2016-06-12T01:07:59.158Z,14.5
2016-06-12T01:08:59.129Z,14.57
2016-06-12T01:09:59.118Z,14.56
2016-06-12T01:10:59.105Z,14.53
2016-06-12T01:11:59.076Z,14.53
2016-06-12T01:12:59.048Z,14.44
2016-06-12T01:13:59.036Z,14.44
2016-06-12T01:14:59.008Z,14.44
2016-06-12T01:15:58.996Z,14.53
2016-06-12T01:16:58.967Z,14.47
2016-06-12T01:17:58.955Z,14.5
2016-06-12T01:18:58.926Z,14.49
2016-06-12T01:19:59.226Z,14.42
2016-06-12T01:20:58.885Z,14.42
2016-06-12T01:21:58.888Z,14.38
2016-06-12T01:22:58.845Z,14.39
2016-06-12T01:23:58.676Z,14.42
2016-06-12T01:24:58.804Z,14.44
2016-06-12T01:25:58.792Z,14.37
2016-06-12T01:26:58.763Z,14.38
2016-06-12T01:27:58.751Z,14.42
2016-06-12T01:28:58.722Z,14.37
2016-06-12T01:29:58.710Z,14.35
2016-06-12T01:30:58.667Z,14.28
2016-06-12T01:31:58.653Z,14.28
2016-06-12T01:32:58.641Z,14.27
2016-06-12T01:33:58.613Z,14.32
2016-06-12T01:34:58.976Z,14.32
2016-06-12T01:35:59.041Z,14.27
2016-06-12T01:36:58.544Z,14.31
2016-06-12T01:37:58.532Z,14.35
2016-06-12T01:38:58.503Z,14.35
2016-06-12T01:39:58.491Z,14.37
2016-06-12T01:40:58.323Z,14.37
2016-06-12T01:41:58.450Z,14.35
2016-06-12T01:42:58.422Z,14.34
2016-06-12T01:43:58.409Z,14.34
2016-06-12T01:44:58.382Z,14.32
2016-06-12T01:45:58.369Z,14.35
2016-06-12T01:46:58.340Z,14.29
2016-06-12T01:47:58.313Z,14.34
2016-06-12T01:48:58.300Z,14.28
2016-06-12T01:49:58.741Z,14.37
2016-06-12T01:50:58.119Z,14.31
2016-06-12T01:51:58.231Z,14.39
2016-06-12T01:52:58.218Z,14.38
2016-06-12T01:53:58.190Z,14.42
2016-06-12T01:54:58.163Z,14.38
2016-06-12T01:55:58.149Z,14.37
2016-06-12T01:56:58.121Z,14.46
2016-06-12T01:57:58.109Z,14.44
2016-06-12T01:58:58.080Z,14.39
2016-06-12T01:59:58.053Z,14.44
2016-06-12T02:00:58.040Z,14.29
2016-06-12T02:01:58.012Z,14.38
2016-06-12T02:02:57.999Z,14.42
2016-06-12T02:03:57.987Z,14.31
2016-06-12T02:04:57.990Z,14.39
2016-06-12T02:05:58.493Z,14.31
2016-06-12T02:06:57.918Z,14.34
2016-06-12T02:07:57.889Z,14.34
2016-06-12T02:08:57.706Z,14.35
2016-06-12T02:09:57.849Z,14.37
2016-06-12T02:10:57.821Z,14.29
2016-06-12T02:11:57.809Z,14.34
2016-06-12T02:12:57.796Z,14.32
2016-06-12T02:13:57.768Z,14.34
2016-06-12T02:14:57.739Z,14.32
2016-06-12T02:15:57.727Z,14.27
2016-06-12T02:16:57.699Z,14.29
2016-06-12T02:17:57.686Z,14.34
2016-06-12T02:18:57.658Z,14.31
2016-06-12T02:19:58.551Z,14.31
2016-06-12T02:20:57.945Z,14.28
2016-06-12T02:21:57.605Z,14.27
2016-06-12T02:22:57.592Z,14.37
2016-06-12T02:23:57.626Z,14.37
2016-06-12T02:24:57.551Z,14.2
2016-06-12T02:25:57.508Z,14.28
2016-06-12T02:26:57.495Z,14.31
2016-06-12T02:27:57.482Z,14.25
2016-06-12T02:28:57.298Z,14.31
2016-06-12T02:29:57.426Z,14.35
2016-06-12T02:30:57.257Z,14.29
2016-06-12T02:31:57.229Z,14.27
2016-06-12T02:32:57.374Z,14.32
2016-06-12T02:33:57.360Z,14.34
2016-06-12T02:34:57.316Z,14.31
2016-06-12T02:35:57.882Z,14.31
2016-06-12T02:36:57.291Z,14.35
2016-06-12T02:37:57.248Z,14.42
2016-06-12T02:38:57.235Z,14.37
2016-06-12T02:39:57.207Z,14.29
2016-06-12T02:40:57.209Z,14.39
2016-06-12T02:41:57.166Z,14.37
2016-06-12T02:42:57.154Z,14.38
2016-06-12T02:43:57.141Z,14.25
2016-06-12T02:44:57.128Z,14.35
2016-06-12T02:45:57.084Z,14.38
2016-06-12T02:46:57.056Z,14.32
2016-06-12T02:47:56.887Z,14.34
2016-06-12T02:48:57.015Z,14.27
2016-06-12T02:49:57.003Z,14.37
2016-06-12T02:50:57.412Z,14.31
2016-06-12T02:51:56.963Z,14.39
2016-06-12T02:52:56.949Z,14.42
2016-06-12T02:53:56.921Z,14.28
2016-06-12T02:54:56.909Z,14.32
2016-06-12T02:55:56.881Z,14.28
2016-06-12T02:56:56.852Z,14.32
2016-06-12T02:57:56.840Z,14.32
2016-06-12T02:58:56.843Z,14.32
2016-06-12T02:59:56.815Z,14.29
2016-06-12T03:00:56.771Z,14.38
2016-06-12T03:01:56.743Z,14.35
2016-06-12T03:02:56.730Z,14.37
2016-06-12T03:03:56.718Z,14.32
2016-06-12T03:04:56.690Z,14.42
2016-06-12T03:05:56.599Z,14.42
2016-06-12T03:06:56.492Z,14.42
2016-06-12T03:07:56.621Z,14.46
2016-06-12T03:08:56.593Z,14.38
2016-06-12T03:09:56.579Z,14.44
2016-06-12T03:10:56.568Z,14.39
2016-06-12T03:11:56.539Z,14.42
2016-06-12T03:12:56.511Z,14.44
2016-06-12T03:13:56.499Z,14.43
2016-06-12T03:14:56.470Z,14.37
2016-06-12T03:15:56.459Z,14.43
2016-06-12T03:16:56.429Z,14.38
2016-06-12T03:17:56.417Z,14.38
2016-06-12T03:18:56.404Z,14.42
2016-06-12T03:19:56.360Z,14.37
2016-06-12T03:20:56.958Z,14.37
2016-06-12T03:21:56.335Z,14.38
2016-06-12T03:22:56.307Z,14.39
2016-06-12T03:23:56.280Z,14.35
2016-06-12T03:24:56.251Z,14.32
2016-06-12T03:25:56.239Z,14.31
2016-06-12T03:26:56.210Z,14.35
2016-06-12T03:27:56.198Z,14.35
2016-06-12T03:28:56.170Z,14.37
2016-06-12T03:29:56.158Z,14.34
2016-06-12T03:30:56.129Z,14.32
2016-06-12T03:31:56.100Z,14.34
2016-06-12T03:32:56.089Z,14.24
2016-06-12T03:33:56.076Z,14.31
2016-06-12T03:34:56.048Z,14.34
2016-06-12T03:35:56.050Z,14.25
2016-06-12T03:36:56.007Z,14.27
2016-06-12T03:37:55.979Z,14.25
2016-06-12T03:38:55.966Z,14.21
2016-06-12T03:39:55.938Z,14.28
2016-06-12T03:40:55.910Z,14.25
2016-06-12T03:41:55.898Z,14.19
2016-06-12T03:42:55.869Z,14.27
2016-06-12T03:43:55.856Z,14.27
2016-06-12T03:44:55.828Z,14.29
2016-06-12T03:45:55.815Z,14.21
2016-06-12T03:46:55.788Z,14.24
2016-06-12T03:47:55.760Z,14.28
2016-06-12T03:48:55.746Z,14.28
2016-06-12T03:49:55.719Z,14.28
2016-06-12T03:50:56.238Z,14.27
2016-06-12T03:51:55.694Z,14.27
2016-06-12T03:52:55.650Z,14.27
2016-06-12T03:53:55.653Z,14.27
2016-06-12T03:54:55.626Z,14.25
2016-06-12T03:55:55.612Z,14.29
2016-06-12T03:56:55.584Z,14.21
2016-06-12T03:57:55.555Z,14.28
2016-06-12T03:58:55.527Z,14.27
2016-06-12T03:59:55.500Z,14.29
2016-06-12T04:00:55.503Z,14.21
2016-06-12T04:01:55.458Z,14.28
2016-06-12T04:02:55.445Z,14.24
2016-06-12T04:03:55.434Z,14.28
2016-06-12T04:04:55.406Z,14.28
2016-06-12T04:05:55.612Z,14.25
2016-06-12T04:06:55.365Z,14.2
2016-06-12T04:07:55.180Z,14.27
2016-06-12T04:08:55.324Z,14.35
2016-06-12T04:09:55.311Z,14.32
2016-06-12T04:10:55.267Z,14.35
2016-06-12T04:11:55.098Z,14.32
2016-06-12T04:12:55.226Z,14.32
2016-06-12T04:13:55.215Z,14.35
2016-06-12T04:14:55.201Z,14.38
2016-06-12T04:15:55.174Z,14.42
2016-06-12T04:16:55.161Z,14.42
2016-06-12T04:17:55.117Z,14.46
2016-06-12T04:18:55.104Z,14.42
2016-06-12T04:19:55.092Z,14.53
2016-06-12T04:20:54.908Z,14.6
2016-06-12T04:21:55.036Z,14.54
2016-06-12T04:22:55.039Z,14.64
2016-06-12T04:23:54.995Z,14.61
2016-06-12T04:24:54.983Z,14.65
2016-06-12T04:25:54.954Z,14.69
2016-06-12T04:26:54.941Z,14.74
2016-06-12T04:27:54.913Z,14.87
2016-06-12T04:28:54.901Z,14.87
2016-06-12T04:29:54.873Z,14.93
2016-06-12T04:30:54.845Z,14.9
2016-06-12T04:31:54.831Z,15.02
2016-06-12T04:32:54.663Z,15.09
2016-06-12T04:33:54.791Z,15.17
2016-06-12T04:34:54.763Z,15.19
2016-06-12T04:35:54.891Z,15.3
2016-06-12T04:36:54.722Z,15.38
2016-06-12T04:37:54.695Z,15.41
2016-06-12T04:38:54.681Z,15.51
2016-06-12T04:39:54.669Z,15.54
2016-06-12T04:40:54.642Z,15.59
2016-06-12T04:41:54.613Z,15.64
2016-06-12T04:42:54.601Z,15.67
2016-06-12T04:43:54.588Z,15.68
2016-06-12T04:44:54.404Z,15.81
2016-06-12T04:45:54.532Z,15.88
2016-06-12T04:46:54.519Z,15.86
2016-06-12T04:47:54.491Z,15.97
2016-06-12T04:48:54.478Z,15.93
2016-06-12T04:49:54.465Z,15.94
2016-06-12T04:50:55.078Z,15.97
2016-06-12T04:51:54.676Z,16.09
2016-06-12T04:52:54.396Z,16.07
2016-06-12T04:53:54.227Z,16.14
2016-06-12T04:54:54.356Z,16.14
2016-06-12T04:55:54.328Z,16.27
2016-06-12T04:56:54.315Z,16.31
2016-06-12T04:57:54.287Z,16.37
2016-06-12T04:58:54.275Z,16.42
2016-06-12T04:59:54.246Z,16.45
2016-06-12T05:00:54.234Z,16.52
2016-06-12T05:01:54.049Z,16.52
2016-06-12T05:02:54.193Z,16.53
2016-06-12T05:03:54.180Z,16.59
2016-06-12T05:04:54.152Z,16.56
2016-06-12T05:05:54.625Z,16.58
2016-06-12T05:06:53.972Z,16.68
2016-06-12T05:07:54.083Z,16.71
2016-06-12T05:08:54.070Z,16.7
2016-06-12T05:09:54.059Z,16.75
2016-06-12T05:10:54.030Z,16.78
2016-06-12T05:11:54.032Z,16.9
2016-06-12T05:12:54.005Z,16.99
2016-06-12T05:13:53.977Z,16.99
2016-06-12T05:14:53.949Z,17.08
2016-06-12T05:15:53.936Z,17.1
2016-06-12T05:16:53.923Z,17.08
2016-06-12T05:17:53.895Z,17.1
2016-06-12T05:18:53.868Z,17.23
2016-06-12T05:19:53.854Z,17.38
2016-06-12T05:20:53.717Z,17.3
2016-06-12T05:21:54.955Z,17.48
2016-06-12T05:22:53.817Z,17.53
2016-06-12T05:23:53.773Z,17.55
2016-06-12T05:24:53.761Z,17.67
2016-06-12T05:25:53.747Z,17.73
2016-06-12T05:26:53.720Z,17.7
2016-06-12T05:27:53.707Z,17.85
2016-06-12T05:28:53.679Z,17.82
2016-06-12T05:29:53.651Z,17.95
2016-06-12T05:30:53.655Z,18.1
2016-06-12T05:31:53.657Z,18.28
2016-06-12T05:32:53.614Z,18.27
2016-06-12T05:33:53.585Z,18.31
2016-06-12T05:34:53.573Z,18.43
2016-06-12T05:35:54.122Z,18.47
2016-06-12T05:36:53.532Z,18.52
2016-06-12T05:37:53.520Z,18.59
2016-06-12T05:38:53.507Z,18.65
2016-06-12T05:39:53.479Z,18.76
2016-06-12T05:40:53.451Z,18.67
2016-06-12T05:41:53.438Z,18.82
2016-06-12T05:42:53.410Z,18.77
2016-06-12T05:43:53.413Z,18.99
2016-06-12T05:44:53.384Z,19.14
2016-06-12T05:45:53.356Z,19.13
2016-06-12T05:46:53.344Z,19.2
2016-06-12T05:47:53.331Z,19.39
2016-06-12T05:48:53.318Z,19.33
2016-06-12T05:49:53.290Z,19.53
2016-06-12T05:50:54.778Z,19.54
2016-06-12T05:51:54.031Z,19.94
2016-06-12T05:52:53.238Z,20.15
2016-06-12T05:53:53.241Z,20.53
2016-06-12T05:54:53.197Z,20.71
2016-06-12T05:55:53.184Z,20.79
2016-06-12T05:56:53.015Z,20.96
2016-06-12T05:57:53.160Z,21.19
2016-06-12T05:58:52.990Z,21.35
2016-06-12T05:59:53.118Z,21.6
2016-06-12T06:00:53.106Z,21.75
2016-06-12T06:01:53.093Z,21.82
2016-06-12T06:02:53.081Z,21.79
2016-06-12T06:03:53.052Z,21.88
2016-06-12T06:04:53.040Z,21.83
2016-06-12T06:05:53.027Z,21.88
2016-06-12T06:06:53.484Z,22.22
2016-06-12T06:07:53.002Z,22.56
2016-06-12T06:08:52.974Z,22.77
2016-06-12T06:09:52.961Z,23.09
2016-06-12T06:10:52.949Z,23.32
2016-06-12T06:11:52.936Z,23.65
2016-06-12T06:12:52.924Z,23.87
2016-06-12T06:13:52.911Z,24.16
2016-06-12T06:14:52.884Z,24.29
2016-06-12T06:15:52.854Z,24.35
2016-06-12T06:16:52.842Z,24.34
2016-06-12T06:17:52.846Z,24.16
2016-06-12T06:18:52.818Z,24.29
2016-06-12T06:19:52.805Z,24.29
2016-06-12T06:20:52.666Z,24.31
2016-06-12T06:21:52.952Z,24.27
2016-06-12T06:22:52.767Z,24.41
2016-06-12T06:23:52.754Z,24.82
2016-06-12T06:24:52.726Z,24.95
2016-06-12T06:25:52.558Z,24.79
2016-06-12T06:26:52.545Z,24.67
2016-06-12T06:27:52.704Z,24.82
2016-06-12T06:28:52.692Z,24.92
2016-06-12T06:29:52.680Z,25.02
2016-06-12T06:30:52.667Z,25.12
2016-06-12T06:31:52.653Z,25.19
2016-06-12T06:32:52.470Z,25.06
2016-06-12T06:33:52.614Z,25.12
2016-06-12T06:34:52.616Z,25.35
2016-06-12T06:35:52.604Z,25.54
2016-06-12T06:36:52.591Z,25.35
2016-06-12T06:37:52.563Z,25.53
2016-06-12T06:38:52.550Z,25.62
2016-06-12T06:39:52.539Z,25.79
2016-06-12T06:40:52.526Z,25.79
2016-06-12T06:41:52.513Z,25.69
2016-06-12T06:42:52.517Z,25.72
2016-06-12T06:43:52.503Z,25.83
2016-06-12T06:44:52.491Z,25.8
2016-06-12T06:45:52.463Z,26.02
2016-06-12T06:46:52.450Z,26.09
2016-06-12T06:47:52.438Z,26.35
2016-06-12T06:48:52.424Z,26.32
2016-06-12T06:49:52.413Z,26.31
2016-06-12T06:50:52.400Z,26.4
2016-06-12T06:51:52.778Z,26.77
2016-06-12T06:52:52.375Z,27.53
2016-06-12T06:53:52.378Z,28.06
2016-06-12T06:54:52.365Z,27.84
2016-06-12T06:55:52.337Z,27.73
2016-06-12T06:56:52.325Z,27.54
2016-06-12T06:57:52.328Z,27.42
2016-06-12T06:58:52.299Z,27.28
2016-06-12T06:59:52.287Z,27.04
2016-06-12T07:00:52.290Z,26.87
2016-06-12T07:01:52.278Z,26.77
2016-06-12T07:02:52.281Z,26.67
2016-06-12T07:03:52.252Z,26.47
2016-06-12T07:04:52.255Z,26.22
2016-06-12T07:05:52.243Z,26.11
2016-06-12T07:06:52.231Z,26.04
2016-06-12T07:07:52.203Z,26.04
2016-06-12T07:08:52.206Z,25.94
2016-06-12T07:09:52.192Z,26.06
2016-06-12T07:10:52.181Z,25.9
2016-06-12T07:11:52.168Z,25.83
2016-06-12T07:12:52.155Z,25.82
2016-06-12T07:13:52.142Z,25.83
2016-06-12T07:14:52.130Z,25.87
2016-06-12T07:15:52.118Z,25.97
2016-06-12T07:16:52.105Z,25.93
2016-06-12T07:17:52.092Z,26.06
2016-06-12T07:18:52.080Z,25.99
2016-06-12T07:19:52.067Z,26.04
2016-06-12T07:20:52.054Z,26.05
2016-06-12T07:21:52.057Z,26.18
2016-06-12T07:22:52.061Z,26.21
2016-06-12T07:23:52.018Z,26.17
2016-06-12T07:24:52.004Z,26.24
2016-06-12T07:25:51.992Z,26.18
2016-06-12T07:26:51.979Z,26.22
2016-06-12T07:27:51.966Z,26.25
2016-06-12T07:28:51.954Z,26.21
2016-06-12T07:29:51.942Z,26.35
2016-06-12T07:30:51.929Z,26.25
2016-06-12T07:31:51.917Z,26.2
2016-06-12T07:32:51.904Z,26.18
2016-06-12T07:33:51.891Z,26.02
2016-06-12T07:34:51.894Z,26.05
2016-06-12T07:35:51.882Z,26.08
2016-06-12T07:36:52.135Z,26.15
2016-06-12T07:37:51.842Z,26.25
2016-06-12T07:38:51.829Z,26.09
2016-06-12T07:39:51.817Z,26.21
2016-06-12T07:40:51.663Z,26.25
2016-06-12T07:41:51.791Z,26.36
2016-06-12T07:42:51.794Z,26.62
2016-06-12T07:43:51.782Z,26.69
2016-06-12T07:44:51.769Z,26.84
2016-06-12T07:45:51.741Z,27.28
2016-06-12T07:46:51.728Z,27.42
2016-06-12T07:47:51.716Z,27.58
2016-06-12T07:48:51.703Z,27.67
2016-06-12T07:49:51.690Z,27.73
2016-06-12T07:50:51.693Z,27.79
2016-06-12T07:51:51.759Z,27.76
2016-06-12T07:52:51.669Z,27.77
2016-06-12T07:53:51.672Z,27.73
2016-06-12T07:54:51.641Z,27.8
2016-06-12T07:55:51.628Z,27.79
2016-06-12T07:56:51.616Z,27.74
2016-06-12T07:57:51.447Z,27.76
2016-06-12T07:58:51.590Z,27.32
2016-06-12T07:59:51.593Z,27.14
2016-06-12T08:00:51.581Z,27.29
2016-06-12T08:01:51.568Z,27.28
2016-06-12T08:02:51.556Z,27.31
2016-06-12T08:03:51.543Z,27.31
2016-06-12T08:04:51.531Z,27.28
2016-06-12T08:05:51.518Z,27.31
2016-06-12T08:06:52.306Z,27.39
2016-06-12T08:07:51.493Z,27.38
2016-06-12T08:08:51.495Z,27.36
2016-06-12T08:09:51.468Z,27.21
2016-06-12T08:10:51.471Z,27.19
2016-06-12T08:11:51.443Z,27.24
2016-06-12T08:12:51.446Z,27.2
2016-06-12T08:13:51.418Z,27.16
2016-06-12T08:14:51.421Z,27.19
2016-06-12T08:15:51.408Z,27.62
2016-06-12T08:16:51.395Z,27.77
2016-06-12T08:17:51.383Z,28.09
2016-06-12T08:18:51.386Z,28.46
2016-06-12T08:19:51.218Z,28.58
2016-06-12T08:20:51.360Z,28.23
2016-06-12T08:21:51.349Z,28.38
2016-06-12T08:22:51.321Z,28.58
2016-06-12T08:23:51.324Z,28.72
2016-06-12T08:24:51.311Z,28.82
2016-06-12T08:25:51.298Z,29.19
2016-06-12T08:26:51.302Z,29.23
2016-06-12T08:27:51.273Z,29.45
2016-06-12T08:28:51.120Z,29.56
2016-06-12T08:29:51.264Z,29.59
2016-06-12T08:30:51.251Z,29.75
2016-06-12T08:31:51.239Z,29.7
2016-06-12T08:32:51.226Z,29.49
2016-06-12T08:33:51.229Z,29.78
2016-06-12T08:34:51.061Z,29.87
2016-06-12T08:35:51.203Z,30.23
2016-06-12T08:36:52.067Z,30.49
2016-06-12T08:37:51.320Z,30.72
2016-06-12T08:38:51.182Z,30.68
2016-06-12T08:39:51.169Z,30.68
2016-06-12T08:40:51.157Z,30.56
2016-06-12T08:41:51.160Z,30.53
2016-06-12T08:42:51.148Z,30.62
2016-06-12T08:43:51.136Z,30.74
2016-06-12T08:44:51.138Z,30.98
2016-06-12T08:45:51.126Z,31.13
2016-06-12T08:46:51.112Z,31.3
2016-06-12T08:47:50.943Z,31.4
2016-06-12T08:48:51.088Z,31.38
2016-06-12T08:49:51.091Z,31.49
2016-06-12T08:50:51.094Z,31.62
2016-06-12T08:51:51.097Z,31.87
2016-06-12T08:52:51.084Z,31.88
2016-06-12T08:53:51.056Z,32.11
2016-06-12T08:54:51.076Z,32.1
2016-06-12T08:55:51.048Z,32
2016-06-12T08:56:51.034Z,32.03
2016-06-12T08:57:51.038Z,31.57
2016-06-12T08:58:51.025Z,31.6
2016-06-12T08:59:51.013Z,31.8
2016-06-12T09:00:51.015Z,31.8
2016-06-12T09:01:51.003Z,31.62
2016-06-12T09:02:50.990Z,30.93
2016-06-12T09:03:50.993Z,30.52
2016-06-12T09:04:50.981Z,30.5
2016-06-12T09:05:50.968Z,29.97
2016-06-12T09:06:51.596Z,29.77
2016-06-12T09:07:50.959Z,29.55
2016-06-12T09:08:50.947Z,29.6
2016-06-12T09:09:50.933Z,29.56
2016-06-12T09:10:50.781Z,29.41
2016-06-12T09:11:50.925Z,29.19
2016-06-12T09:12:50.911Z,29.41
2016-06-12T09:13:50.914Z,29.52
2016-06-12T09:14:50.888Z,29.68
2016-06-12T09:15:50.946Z,29.63
2016-06-12T09:16:50.959Z,29.71
2016-06-12T09:17:50.988Z,29.78
2016-06-12T09:18:51.016Z,29.87
2016-06-12T09:19:51.059Z,30
2016-06-12T09:20:51.061Z,30
2016-06-12T09:21:51.875Z,30
2016-06-12T09:22:51.096Z,29.96
2016-06-12T09:23:51.067Z,29.87
2016-06-12T09:24:51.069Z,29.28
2016-06-12T09:25:51.077Z,29.31
2016-06-12T09:26:51.069Z,29.41
2016-06-12T09:27:51.062Z,29.41
2016-06-12T09:28:51.055Z,29.52
2016-06-12T09:29:51.047Z,29.33
2016-06-12T09:30:51.052Z,29.07
2016-06-12T09:31:51.041Z,29.16
2016-06-12T09:32:51.031Z,29.33
2016-06-12T09:33:51.019Z,29.31
2016-06-12T09:34:51.024Z,28.95
2016-06-12T09:35:51.013Z,28.69
2016-06-12T09:36:51.001Z,28.63
2016-06-12T09:37:51.068Z,28.82
2016-06-12T09:38:50.993Z,28.8
2016-06-12T09:39:50.998Z,28.56
2016-06-12T09:40:50.969Z,28.35
2016-06-12T09:41:50.957Z,28.31
2016-06-12T09:42:50.789Z,28.17
2016-06-12T09:43:50.932Z,28.04
2016-06-12T09:44:50.921Z,27.86
2016-06-12T09:45:50.908Z,27.98
2016-06-12T09:46:50.911Z,27.91
2016-06-12T09:47:50.899Z,27.88
2016-06-12T09:48:50.886Z,27.86
2016-06-12T09:49:50.858Z,28.16
2016-06-12T09:50:50.861Z,28.11
2016-06-12T09:51:51.083Z,28.1
2016-06-12T09:52:51.164Z,27.95
2016-06-12T09:53:50.823Z,27.76
2016-06-12T09:54:50.827Z,27.58
2016-06-12T09:55:50.799Z,27.48
2016-06-12T09:56:50.801Z,27.39
2016-06-12T09:57:50.772Z,27.26
2016-06-12T09:58:50.776Z,27.28
2016-06-12T09:59:50.764Z,27.17
2016-06-12T10:00:50.751Z,26.95
2016-06-12T10:01:50.582Z,27.01
2016-06-12T10:02:50.726Z,26.96
2016-06-12T10:03:50.713Z,26.89
2016-06-12T10:04:50.701Z,26.69
2016-06-12T10:05:50.688Z,26.84
2016-06-12T10:06:50.536Z,26.54
2016-06-12T10:07:51.553Z,26.46
2016-06-12T10:08:50.666Z,26.72
2016-06-12T10:09:50.654Z,26.73
2016-06-12T10:10:50.641Z,26.83
2016-06-12T10:11:50.612Z,26.87
2016-06-12T10:12:50.616Z,27.11
2016-06-12T10:13:50.604Z,27.1
2016-06-12T10:14:50.591Z,26.92
2016-06-12T10:15:50.578Z,26.74
2016-06-12T10:16:50.566Z,26.57
2016-06-12T10:17:50.569Z,26.59
2016-06-12T10:18:50.540Z,26.68
2016-06-12T10:19:50.529Z,26.89
2016-06-12T10:20:50.515Z,26.72
2016-06-12T10:21:50.503Z,26.65
2016-06-12T10:22:50.507Z,26.65
2016-06-12T10:23:50.478Z,26.67
2016-06-12T10:24:50.481Z,26.64
2016-06-12T10:25:50.469Z,26.57
2016-06-12T10:26:50.440Z,26.47
2016-06-12T10:27:50.443Z,26.47
2016-06-12T10:28:50.415Z,26.37
2016-06-12T10:29:50.403Z,26.32
2016-06-12T10:30:50.406Z,26.43
2016-06-12T10:31:50.394Z,26.27
2016-06-12T10:32:50.381Z,26.28
2016-06-12T10:33:50.369Z,26.42
2016-06-12T10:34:50.355Z,26.15
2016-06-12T10:35:50.359Z,26.05
2016-06-12T10:36:50.331Z,26.01
2016-06-12T10:37:50.349Z,26.17
2016-06-12T10:38:50.306Z,26.42
2016-06-12T10:39:50.309Z,26.49
2016-06-12T10:40:50.296Z,26.76
2016-06-12T10:41:50.283Z,26.84
2016-06-12T10:42:50.255Z,26.76
2016-06-12T10:43:50.242Z,26.81
2016-06-12T10:44:50.230Z,27.01
2016-06-12T10:45:50.217Z,26.99
2016-06-12T10:46:50.205Z,27.14
2016-06-12T10:47:50.208Z,27.26
2016-06-12T10:48:50.180Z,27.28
2016-06-12T10:49:50.183Z,27.33
2016-06-12T10:50:50.154Z,27.38
2016-06-12T10:51:50.158Z,27.43
2016-06-12T10:52:50.927Z,27.14
2016-06-12T10:53:49.976Z,26.95
2016-06-12T10:54:49.964Z,27.17
2016-06-12T10:55:50.108Z,27.24
2016-06-12T10:56:50.095Z,27.2
2016-06-12T10:57:50.082Z,27.33
2016-06-12T10:58:50.071Z,27.39
2016-06-12T10:59:50.057Z,27.28
2016-06-12T11:00:50.044Z,27.19
2016-06-12T11:01:50.032Z,27.21
2016-06-12T11:02:50.005Z,27.17
2016-06-12T11:03:50.008Z,27.17
2016-06-12T11:04:50.010Z,27.26
2016-06-12T11:05:49.982Z,27.32
2016-06-12T11:06:49.970Z,27.31
2016-06-12T11:07:49.972Z,27.05
2016-06-12T11:08:49.944Z,27.01
2016-06-12T11:09:49.932Z,27.17
2016-06-12T11:10:49.919Z,27.23
2016-06-12T11:11:49.907Z,27.17
2016-06-12T11:12:49.894Z,27.17
2016-06-12T11:13:49.897Z,27.29
2016-06-12T11:14:49.885Z,27.46
2016-06-12T11:15:49.873Z,27.46
2016-06-12T11:16:49.844Z,27.54
2016-06-12T11:17:49.832Z,27.58
2016-06-12T11:18:49.834Z,27.57
2016-06-12T11:19:49.822Z,27.54
2016-06-12T11:20:49.825Z,27.64
2016-06-12T11:21:49.797Z,27.35
2016-06-12T11:22:49.784Z,27.24
2016-06-12T11:23:49.772Z,27.35
2016-06-12T11:24:49.759Z,27.46
2016-06-12T11:25:49.746Z,27.48
2016-06-12T11:26:49.734Z,27.69
2016-06-12T11:27:49.721Z,27.7
2016-06-12T11:28:49.709Z,27.79
2016-06-12T11:29:49.525Z,27.74
2016-06-12T11:30:49.683Z,27.67
2016-06-12T11:31:49.671Z,27.64
2016-06-12T11:32:49.659Z,27.39
2016-06-12T11:33:49.646Z,27.35
2016-06-12T11:34:49.634Z,27.46
2016-06-12T11:35:49.621Z,27.54
2016-06-12T11:36:49.609Z,27.64
2016-06-12T11:37:49.659Z,27.71
2016-06-12T11:38:49.584Z,27.7
2016-06-12T11:39:49.587Z,27.69
2016-06-12T11:40:49.559Z,27.53
2016-06-12T11:41:49.561Z,27.46
2016-06-12T11:42:49.533Z,27.47
2016-06-12T11:43:49.520Z,27.39
2016-06-12T11:44:49.523Z,27.35
2016-06-12T11:45:49.340Z,27.33
2016-06-12T11:46:49.499Z,27.31
2016-06-12T11:47:49.486Z,27.29
2016-06-12T11:48:49.458Z,27.35
2016-06-12T11:49:49.445Z,27.2
2016-06-12T11:50:49.433Z,27.06
2016-06-12T11:51:49.436Z,27.05
2016-06-12T11:52:49.408Z,27.04
2016-06-12T11:53:49.646Z,26.87
2016-06-12T11:54:49.382Z,26.83
2016-06-12T11:55:49.386Z,26.42
2016-06-12T11:56:49.358Z,26.31
2016-06-12T11:57:49.360Z,26.29
2016-06-12T11:58:49.191Z,26.29
2016-06-12T11:59:49.320Z,26.28
2016-06-12T12:00:49.308Z,26.28
2016-06-12T12:01:49.295Z,26.32
2016-06-12T12:02:49.282Z,26.25
2016-06-12T12:03:49.270Z,26.21
2016-06-12T12:04:49.257Z,26.09
2016-06-12T12:05:49.260Z,26.2
2016-06-12T12:06:49.232Z,26.11
2016-06-12T12:07:50.141Z,26.21
2016-06-12T12:08:49.207Z,26.31
2016-06-12T12:09:49.194Z,26.43
2016-06-12T12:10:49.182Z,26.44
2016-06-12T12:11:49.169Z,26.52
2016-06-12T12:12:49.172Z,26.47
2016-06-12T12:13:48.988Z,26.61
2016-06-12T12:14:49.132Z,26.74
2016-06-12T12:15:49.119Z,26.77
2016-06-12T12:16:49.108Z,26.74
2016-06-12T12:17:48.953Z,26.72
2016-06-12T12:18:49.081Z,26.72
2016-06-12T12:19:49.085Z,26.76
2016-06-12T12:20:49.057Z,26.77
2016-06-12T12:21:49.044Z,26.77
2016-06-12T12:22:49.282Z,26.64
2016-06-12T12:23:49.347Z,26.49
2016-06-12T12:24:49.006Z,26.49
2016-06-12T12:25:48.994Z,26.44
2016-06-12T12:26:48.981Z,26.31
2016-06-12T12:27:48.811Z,26.25
2016-06-12T12:28:48.972Z,26.11
2016-06-12T12:29:48.959Z,26.11
2016-06-12T12:30:48.931Z,26.11
2016-06-12T12:31:48.919Z,26.15
2016-06-12T12:32:48.906Z,26.06
2016-06-12T12:33:48.894Z,26.21
2016-06-12T12:34:48.881Z,26.25
2016-06-12T12:35:48.883Z,26.28
2016-06-12T12:36:48.855Z,26.32
2016-06-12T12:37:49.233Z,26.49
2016-06-12T12:38:49.017Z,26.58
2016-06-12T12:39:48.818Z,26.62
2016-06-12T12:40:48.649Z,26.67
2016-06-12T12:41:48.792Z,26.61
2016-06-12T12:42:48.780Z,26.76
2016-06-12T12:43:48.768Z,26.8
2016-06-12T12:44:48.756Z,26.79
2016-06-12T12:45:48.742Z,26.89
2016-06-12T12:46:48.730Z,26.86
2016-06-12T12:47:48.702Z,26.87
2016-06-12T12:48:48.689Z,26.95
2016-06-12T12:49:48.693Z,27.02
2016-06-12T12:50:48.680Z,26.86
2016-06-12T12:51:48.668Z,26.77
2016-06-12T12:52:49.343Z,26.59
2016-06-12T12:53:48.658Z,26.68